Time,TemperatureF,DewpointF,PressureIn,WindDirection,WindDirectionDegrees,WindSpeedMPH,WindSpeedGustMPH,Humidity,HourlyPrecipIn,Conditions,Clouds,dailyrainin,SoftwareType,DateUTC
2013-08-30 00:01:00,80.9,69.7,29.91,SSE,158,0.0,0.0,68,0.00,,,-99.99,Meteorologica,2013-08-30 05:01:00,
2013-08-30 00:06:00,80.8,69.7,29.91,SSE,158,0.0,0.0,68,0.00,,,-99.99,Meteorologica,2013-08-30 05:06:00,
2013-08-30 00:11:00,80.4,69.4,29.91,SSE,158,0.0,0.0,68,0.00,,,-99.99,Meteorologica,2013-08-30 05:11:00,
2013-08-30 00:16:00,80.5,69.5,29.91,SSE,158,0.0,0.0,68,0.00,,,-99.99,Meteorologica,2013-08-30 05:16:00,
2013-08-30 00:21:00,80.5,69.6,29.92,SSE,158,0.0,0.0,68,0.00,,,-99.99,Meteorologica,2013-08-30 05:21:00,
2013-08-30 00:26:00,80.4,69.7,29.91,SSE,158,0.0,0.0,69,0.00,,,-99.99,Meteorologica,2013-08-30 05:26:00,
2013-08-30 00:31:00,80.0,69.5,29.91,SSE,158,0.0,0.0,69,0.00,,,-99.99,Meteorologica,2013-08-30 05:31:00,
2013-08-30 00:36:00,79.9,69.5,29.92,SSE,158,0.0,0.0,70,0.00,,,-99.99,Meteorologica,2013-08-30 05:36:00,
2013-08-30 00:41:00,79.5,69.3,29.91,SSE,158,0.0,0.0,70,0.00,,,-99.99,Meteorologica,2013-08-30 05:41:00,
2013-08-30 00:46:00,79.4,69.4,29.91,SSE,158,0.0,0.0,71,0.00,,,-99.99,Meteorologica,2013-08-30 05:46:00,
2013-08-30 00:51:00,79.2,69.4,29.92,SSE,158,0.0,0.0,71,0.00,,,-99.99,Meteorologica,2013-08-30 05:51:00,
2013-08-30 00:56:00,79.1,69.3,29.92,SSE,158,0.0,0.0,71,0.00,,,-99.99,Meteorologica,2013-08-30 05:56:00,
2013-08-30 01:01:00,79.0,69.3,29.92,ESE,105,0.0,0.0,71,0.00,,,-99.99,Meteorologica,2013-08-30 06:01:00,
2013-08-30 01:06:00,78.8,69.3,29.92,ESE,105,0.0,0.0,72,0.00,,,-99.99,Meteorologica,2013-08-30 06:06:00,
2013-08-30 01:11:00,78.8,69.3,29.91,ESE,105,0.0,0.0,72,0.00,,,-99.99,Meteorologica,2013-08-30 06:11:00,
2013-08-30 01:16:00,78.5,69.1,29.92,ESE,105,0.0,0.0,72,0.00,,,-99.99,Meteorologica,2013-08-30 06:16:00,
2013-08-30 01:21:00,78.4,69.2,29.92,ESE,105,0.0,0.0,73,0.00,,,-99.99,Meteorologica,2013-08-30 06:21:00,
2013-08-30 01:26:00,78.2,69.1,29.92,ESE,105,0.0,0.0,73,0.00,,,-99.99,Meteorologica,2013-08-30 06:26:00,
2013-08-30 01:31:00,77.9,69.2,29.92,ESE,105,0.0,0.0,74,0.00,,,-99.99,Meteorologica,2013-08-30 06:31:00,
2013-08-30 01:36:00,77.7,69.2,29.92,ESE,105,0.0,0.0,74,0.00,,,-99.99,Meteorologica,2013-08-30 06:36:00,
2013-08-30 01:41:00,77.3,68.9,29.92,ESE,105,0.0,0.0,74,0.00,,,-99.99,Meteorologica,2013-08-30 06:41:00,
2013-08-30 01:46:00,76.8,68.8,29.92,ESE,105,0.0,0.0,75,0.00,,,-99.99,Meteorologica,2013-08-30 06:46:00,
2013-08-30 01:51:00,76.6,68.8,29.93,ESE,105,0.0,0.0,76,0.00,,,-99.99,Meteorologica,2013-08-30 06:51:00,
2013-08-30 01:56:00,76.2,68.6,29.93,ESE,105,0.0,0.0,77,0.00,,,-99.99,Meteorologica,2013-08-30 06:56:00,
2013-08-30 02:01:00,76.0,68.6,29.92,ESE,105,0.0,0.0,77,0.00,,,-99.99,Meteorologica,2013-08-30 07:01:00,
2013-08-30 02:06:00,75.8,68.6,29.92,ESE,105,0.0,0.0,78,0.00,,,-99.99,Meteorologica,2013-08-30 07:06:00,
2013-08-30 02:11:00,75.7,68.7,29.92,ESE,105,0.0,0.0,78,0.00,,,-99.99,Meteorologica,2013-08-30 07:11:00,
2013-08-30 02:16:00,75.4,68.7,29.93,ESE,105,0.0,0.0,79,0.00,,,-99.99,Meteorologica,2013-08-30 07:16:00,
2013-08-30 02:21:00,75.2,68.5,29.93,ESE,105,0.0,0.0,79,0.00,,,-99.99,Meteorologica,2013-08-30 07:21:00,
2013-08-30 02:26:00,75.4,68.7,29.92,ESE,105,0.0,0.0,79,0.00,,,-99.99,Meteorologica,2013-08-30 07:26:00,
2013-08-30 02:31:00,75.4,68.6,29.92,ESE,105,0.0,0.0,79,0.00,,,-99.99,Meteorologica,2013-08-30 07:31:00,
2013-08-30 02:36:00,75.7,68.9,29.92,ESE,105,0.0,0.0,79,0.00,,,-99.99,Meteorologica,2013-08-30 07:36:00,
2013-08-30 02:41:00,75.7,68.8,29.93,ESE,105,0.0,0.0,78,0.00,,,-99.99,Meteorologica,2013-08-30 07:41:00,
2013-08-30 02:46:00,75.7,68.8,29.92,ESE,105,0.0,0.0,78,0.00,,,-99.99,Meteorologica,2013-08-30 07:46:00,
2013-08-30 02:51:00,75.7,68.8,29.92,ESE,105,0.0,0.0,78,0.00,,,-99.99,Meteorologica,2013-08-30 07:51:00,
2013-08-30 02:56:00,75.5,68.7,29.92,ESE,105,0.0,0.0,79,0.00,,,-99.99,Meteorologica,2013-08-30 07:56:00,
2013-08-30 03:01:00,75.5,68.5,29.92,ESE,105,0.0,0.0,79,0.00,,,-99.99,Meteorologica,2013-08-30 08:01:00,
2013-08-30 03:06:00,75.3,68.6,29.93,ESE,105,0.0,0.0,79,0.00,,,-99.99,Meteorologica,2013-08-30 08:06:00,
2013-08-30 03:11:00,75.2,68.6,29.93,ESE,105,0.0,0.0,79,0.00,,,-99.99,Meteorologica,2013-08-30 08:11:00,
2013-08-30 03:16:00,75.2,68.7,29.93,ESE,105,0.0,0.0,80,0.00,,,-99.99,Meteorologica,2013-08-30 08:16:00,
2013-08-30 03:21:00,74.9,68.6,29.92,ESE,105,0.0,0.0,80,0.00,,,-99.99,Meteorologica,2013-08-30 08:21:00,
2013-08-30 03:26:00,74.9,68.7,29.92,ESE,105,0.0,0.0,80,0.00,,,-99.99,Meteorologica,2013-08-30 08:26:00,
2013-08-30 03:31:00,74.5,68.4,29.92,ESE,105,0.0,0.0,81,0.00,,,-99.99,Meteorologica,2013-08-30 08:31:00,
2013-08-30 03:36:00,74.4,68.4,29.92,ESE,105,0.0,0.0,81,0.00,,,-99.99,Meteorologica,2013-08-30 08:36:00,
2013-08-30 03:41:00,74.3,68.5,29.93,ESE,105,0.0,0.0,81,0.00,,,-99.99,Meteorologica,2013-08-30 08:41:00,
2013-08-30 03:46:00,74.1,68.4,29.92,ESE,105,0.0,0.0,82,0.00,,,-99.99,Meteorologica,2013-08-30 08:46:00,
2013-08-30 03:51:00,74.1,68.3,29.92,ESE,105,0.0,0.0,82,0.00,,,-99.99,Meteorologica,2013-08-30 08:51:00,
2013-08-30 03:56:00,74.3,68.5,29.92,ESE,105,0.0,0.0,81,0.00,,,-99.99,Meteorologica,2013-08-30 08:56:00,
2013-08-30 04:01:00,74.3,68.3,29.92,ESE,105,0.0,0.0,81,0.00,,,-99.99,Meteorologica,2013-08-30 09:01:00,
2013-08-30 04:06:00,74.4,68.4,29.93,ESE,105,0.0,0.0,81,0.00,,,-99.99,Meteorologica,2013-08-30 09:06:00,
2013-08-30 04:11:00,74.4,68.4,29.92,ESE,105,0.0,0.0,81,0.00,,,-99.99,Meteorologica,2013-08-30 09:11:00,
2013-08-30 04:16:00,74.2,68.4,29.92,ESE,105,0.0,0.0,81,0.00,,,-99.99,Meteorologica,2013-08-30 09:16:00,
2013-08-30 04:21:00,74.2,68.4,29.92,ESE,105,0.0,0.0,82,0.00,,,-99.99,Meteorologica,2013-08-30 09:21:00,
2013-08-30 04:26:00,74.1,68.4,29.92,ESE,105,0.0,0.0,82,0.00,,,-99.99,Meteorologica,2013-08-30 09:26:00,
2013-08-30 04:31:00,74.0,68.3,29.92,ESE,105,0.0,0.0,82,0.00,,,-99.99,Meteorologica,2013-08-30 09:31:00,
2013-08-30 04:36:00,74.0,68.4,29.92,ESE,105,0.0,0.0,82,0.00,,,-99.99,Meteorologica,2013-08-30 09:36:00,
2013-08-30 04:41:00,73.8,68.2,29.91,ESE,105,0.0,0.0,82,0.00,,,-99.99,Meteorologica,2013-08-30 09:41:00,
2013-08-30 04:46:00,73.7,68.2,29.92,ESE,105,0.0,0.0,82,0.00,,,-99.99,Meteorologica,2013-08-30 09:46:00,
2013-08-30 04:51:00,73.6,68.2,29.91,ESE,105,0.0,0.0,83,0.00,,,-99.99,Meteorologica,2013-08-30 09:51:00,
2013-08-30 04:56:00,73.6,68.3,29.91,ESE,105,0.0,0.0,83,0.00,,,-99.99,Meteorologica,2013-08-30 09:56:00,
2013-08-30 05:01:00,73.4,68.1,29.91,ESE,105,0.0,0.0,83,0.00,,,-99.99,Meteorologica,2013-08-30 10:01:00,
2013-08-30 05:06:00,73.3,68.1,29.91,ESE,105,0.0,0.0,83,0.00,,,-99.99,Meteorologica,2013-08-30 10:06:00,
2013-08-30 05:11:00,73.2,68.1,29.91,ESE,105,0.0,0.0,83,0.00,,,-99.99,Meteorologica,2013-08-30 10:11:00,
2013-08-30 05:16:00,73.0,67.9,29.91,ESE,105,0.0,0.0,84,0.00,,,-99.99,Meteorologica,2013-08-30 10:16:00,
2013-08-30 05:21:00,72.9,67.9,29.91,ESE,105,0.0,0.0,84,0.00,,,-99.99,Meteorologica,2013-08-30 10:21:00,
2013-08-30 05:26:00,72.9,67.8,29.91,ESE,105,0.0,0.0,84,0.00,,,-99.99,Meteorologica,2013-08-30 10:26:00,
2013-08-30 05:31:00,72.8,67.7,29.92,ESE,105,0.0,0.0,84,0.00,,,-99.99,Meteorologica,2013-08-30 10:31:00,
2013-08-30 05:36:00,72.8,67.7,29.92,ESE,105,0.0,0.0,83,0.00,,,-99.99,Meteorologica,2013-08-30 10:36:00,
2013-08-30 05:41:00,72.8,67.6,29.91,ESE,105,0.0,0.0,83,0.00,,,-99.99,Meteorologica,2013-08-30 10:41:00,
2013-08-30 05:46:00,72.9,67.7,29.92,ESE,105,0.0,0.0,83,0.00,,,-99.99,Meteorologica,2013-08-30 10:46:00,
2013-08-30 05:51:00,72.7,67.4,29.92,ESE,105,0.0,0.0,83,0.00,,,-99.99,Meteorologica,2013-08-30 10:51:00,
2013-08-30 05:56:00,72.7,67.4,29.93,ESE,105,0.0,0.0,83,0.00,,,-99.99,Meteorologica,2013-08-30 10:56:00,
2013-08-30 06:01:00,72.6,67.3,29.92,ESE,105,0.0,0.0,83,0.00,,,-99.99,Meteorologica,2013-08-30 11:01:00,
2013-08-30 06:06:00,72.5,67.2,29.92,ESE,105,0.0,0.0,83,0.00,,,-99.99,Meteorologica,2013-08-30 11:06:00,
2013-08-30 06:11:00,72.4,67.1,29.92,ESE,105,0.0,0.0,83,0.00,,,-99.99,Meteorologica,2013-08-30 11:11:00,
2013-08-30 06:16:00,72.3,67.0,29.92,ESE,105,0.0,0.0,83,0.00,,,-99.99,Meteorologica,2013-08-30 11:16:00,
2013-08-30 06:21:00,72.3,66.9,29.92,ESE,105,0.0,0.0,83,0.00,,,-99.99,Meteorologica,2013-08-30 11:21:00,
2013-08-30 06:26:00,72.2,66.8,29.92,ESE,105,0.0,0.0,83,0.00,,,-99.99,Meteorologica,2013-08-30 11:26:00,
2013-08-30 06:31:00,72.1,66.8,29.92,ESE,105,0.0,0.0,83,0.00,,,-99.99,Meteorologica,2013-08-30 11:31:00,
2013-08-30 06:36:00,72.1,66.6,29.92,ESE,105,0.0,0.0,83,0.00,,,-99.99,Meteorologica,2013-08-30 11:36:00,
2013-08-30 06:41:00,72.1,66.7,29.92,ESE,105,0.0,0.0,82,0.00,,,-99.99,Meteorologica,2013-08-30 11:41:00,
2013-08-30 06:46:00,72.1,66.5,29.93,ESE,105,0.0,0.0,82,0.00,,,-99.99,Meteorologica,2013-08-30 11:46:00,
2013-08-30 06:51:00,72.3,66.6,29.92,ESE,105,0.0,0.0,82,0.00,,,-99.99,Meteorologica,2013-08-30 11:51:00,
2013-08-30 06:56:00,72.5,66.8,29.92,ESE,105,0.0,0.0,82,0.00,,,-99.99,Meteorologica,2013-08-30 11:56:00,
2013-08-30 07:01:00,72.5,66.8,29.92,ESE,105,0.0,0.0,82,0.00,,,-99.99,Meteorologica,2013-08-30 12:01:00,
2013-08-30 07:06:00,72.5,66.8,29.93,ESE,105,0.0,0.0,82,0.00,,,-99.99,Meteorologica,2013-08-30 12:06:00,
2013-08-30 07:11:00,72.5,66.8,29.93,ESE,105,0.0,0.0,82,0.00,,,-99.99,Meteorologica,2013-08-30 12:11:00,
2013-08-30 07:16:00,72.5,66.8,29.93,ESE,105,0.0,0.0,82,0.00,,,-99.99,Meteorologica,2013-08-30 12:16:00,
2013-08-30 07:21:00,72.4,66.7,29.93,ESE,105,0.0,0.0,82,0.00,,,-99.99,Meteorologica,2013-08-30 12:21:00,
2013-08-30 07:26:00,72.5,66.9,29.93,ESE,105,0.0,0.0,82,0.00,,,-99.99,Meteorologica,2013-08-30 12:26:00,
2013-08-30 07:31:00,72.4,66.9,29.93,ESE,105,0.0,0.0,82,0.00,,,-99.99,Meteorologica,2013-08-30 12:31:00,
2013-08-30 07:36:00,72.5,67.0,29.93,ESE,105,0.0,0.0,82,0.00,,,-99.99,Meteorologica,2013-08-30 12:36:00,
2013-08-30 07:41:00,72.5,67.0,29.93,ESE,105,0.0,0.0,82,0.00,,,-99.99,Meteorologica,2013-08-30 12:41:00,
2013-08-30 07:46:00,72.7,67.2,29.93,ESE,105,0.0,0.0,82,0.00,,,-99.99,Meteorologica,2013-08-30 12:46:00,
2013-08-30 07:51:00,73.0,67.3,29.92,ESE,105,0.0,0.0,82,0.00,,,-99.99,Meteorologica,2013-08-30 12:51:00,
2013-08-30 07:56:00,73.1,67.4,29.93,ESE,105,0.0,0.0,82,0.00,,,-99.99,Meteorologica,2013-08-30 12:56:00,
2013-08-30 08:01:00,73.3,67.5,29.92,South,170,1.4,4.3,82,0.00,,,-99.99,Meteorologica,2013-08-30 13:01:00,
2013-08-30 08:06:00,73.5,67.8,29.93,SSE,151,1.2,3.4,82,0.00,,,-99.99,Meteorologica,2013-08-30 13:06:00,
2013-08-30 08:11:00,73.6,67.6,29.93,SSW,193,0.0,0.0,81,0.00,,,-99.99,Meteorologica,2013-08-30 13:11:00,
2013-08-30 08:16:00,74.2,67.9,29.93,SSW,193,0.0,0.0,80,0.00,,,-99.99,Meteorologica,2013-08-30 13:16:00,
2013-08-30 08:21:00,74.6,68.0,29.93,South,179,1.9,5.1,79,0.00,,,-99.99,Meteorologica,2013-08-30 13:21:00,
2013-08-30 08:26:00,74.8,68.1,29.93,SE,146,0.0,3.3,79,0.00,,,-99.99,Meteorologica,2013-08-30 13:26:00,
2013-08-30 08:31:00,75.3,68.4,29.93,SSW,204,1.8,6.0,78,0.00,,,-99.99,Meteorologica,2013-08-30 13:31:00,
2013-08-30 08:36:00,75.8,68.6,29.93,SSW,203,2.9,6.6,78,0.00,,,-99.99,Meteorologica,2013-08-30 13:36:00,
2013-08-30 08:41:00,76.2,68.8,29.93,South,182,1.6,6.2,77,0.00,,,-99.99,Meteorologica,2013-08-30 13:41:00,
2013-08-30 08:46:00,77.0,69.1,29.93,SE,143,0.0,0.0,76,0.00,,,-99.99,Meteorologica,2013-08-30 13:46:00,
2013-08-30 08:51:00,77.4,69.1,29.93,SSW,203,5.1,7.2,75,0.00,,,-99.99,Meteorologica,2013-08-30 13:51:00,
2013-08-30 08:56:00,77.8,69.0,29.93,SSW,199,4.9,7.0,74,0.00,,,-99.99,Meteorologica,2013-08-30 13:56:00,
2013-08-30 09:01:00,78.3,69.1,29.93,SSW,208,6.3,7.9,73,0.00,,,-99.99,Meteorologica,2013-08-30 14:01:00,
2013-08-30 09:06:00,78.7,69.7,29.93,South,184,4.9,6.4,73,0.00,,,-99.99,Meteorologica,2013-08-30 14:06:00,
2013-08-30 09:11:00,79.0,69.4,29.93,SSW,198,5.8,8.4,72,0.00,,,-99.99,Meteorologica,2013-08-30 14:11:00,
2013-08-30 09:16:00,79.3,69.3,29.93,SSW,197,5.4,7.6,71,0.00,,,-99.99,Meteorologica,2013-08-30 14:16:00,
2013-08-30 09:21:00,79.9,69.8,29.93,SSW,211,3.7,7.7,70,0.00,,,-99.99,Meteorologica,2013-08-30 14:21:00,
2013-08-30 09:26:00,80.5,70.0,29.93,South,177,6.9,10.1,69,0.00,,,-99.99,Meteorologica,2013-08-30 14:26:00,
2013-08-30 09:31:00,81.1,70.3,29.93,SSE,152,2.9,8.2,69,0.00,,,-99.99,Meteorologica,2013-08-30 14:31:00,
2013-08-30 09:36:00,81.7,70.2,29.93,West,280,4.6,6.9,67,0.00,,,-99.99,Meteorologica,2013-08-30 14:36:00,
2013-08-30 09:41:00,82.4,70.3,29.93,SSW,193,5.6,8.9,66,0.00,,,-99.99,Meteorologica,2013-08-30 14:41:00,
2013-08-30 09:46:00,82.8,70.1,29.93,SSE,156,5.4,10.4,65,0.00,,,-99.99,Meteorologica,2013-08-30 14:46:00,
2013-08-30 09:51:00,83.4,69.7,29.93,SSW,213,2.1,9.9,62,0.00,,,-99.99,Meteorologica,2013-08-30 14:51:00,
2013-08-30 09:56:00,84.0,70.1,29.93,SSW,195,4.2,8.7,62,0.00,,,-99.99,Meteorologica,2013-08-30 14:56:00,
2013-08-30 10:01:00,84.5,70.0,29.93,SSW,195,6.6,10.2,61,0.00,,,-99.99,Meteorologica,2013-08-30 15:01:00,
2013-08-30 10:06:00,84.8,69.5,29.93,SW,214,6.7,10.0,59,0.00,,,-99.99,Meteorologica,2013-08-30 15:06:00,
2013-08-30 10:11:00,85.1,69.9,29.93,SSW,208,6.1,11.5,59,0.00,,,-99.99,Meteorologica,2013-08-30 15:11:00,
2013-08-30 10:16:00,85.6,70.1,29.93,South,185,6.6,11.2,59,0.00,,,-99.99,Meteorologica,2013-08-30 15:16:00,
2013-08-30 10:21:00,86.0,70.3,29.93,SSW,201,5.1,8.2,59,0.00,,,-99.99,Meteorologica,2013-08-30 15:21:00,
2013-08-30 10:26:00,86.4,70.5,29.93,WSW,252,0.0,4.5,58,0.00,,,-99.99,Meteorologica,2013-08-30 15:26:00,
2013-08-30 10:31:00,87.0,70.2,29.93,South,179,6.0,9.4,57,0.00,,,-99.99,Meteorologica,2013-08-30 15:31:00,
2013-08-30 10:36:00,87.4,69.9,29.93,SW,222,5.8,11.1,55,0.00,,,-99.99,Meteorologica,2013-08-30 15:36:00,
2013-08-30 10:41:00,87.6,69.9,29.92,SSE,157,1.9,5.8,55,0.00,,,-99.99,Meteorologica,2013-08-30 15:41:00,
2013-08-30 10:46:00,88.2,70.0,29.92,South,172,5.0,10.4,54,0.00,,,-99.99,Meteorologica,2013-08-30 15:46:00,
2013-08-30 10:51:00,88.2,68.9,29.92,SW,235,7.9,11.2,52,0.00,,,-99.99,Meteorologica,2013-08-30 15:51:00,
2013-08-30 10:56:00,88.5,70.4,29.92,SW,228,0.0,7.2,54,0.00,,,-99.99,Meteorologica,2013-08-30 15:56:00,
2013-08-30 11:01:00,89.0,69.8,29.92,SSE,167,3.6,9.7,52,0.00,,,-99.99,Meteorologica,2013-08-30 16:01:00,
2013-08-30 11:06:00,89.3,70.3,29.91,SSE,154,5.2,7.4,53,0.00,,,-99.99,Meteorologica,2013-08-30 16:06:00,
2013-08-30 11:11:00,89.8,70.5,29.91,South,188,4.1,6.6,52,0.00,,,-99.99,Meteorologica,2013-08-30 16:11:00,
2013-08-30 11:16:00,90.1,70.3,29.91,WSW,242,1.5,6.0,51,0.00,,,-99.99,Meteorologica,2013-08-30 16:16:00,
2013-08-30 11:21:00,90.4,70.1,29.91,WNW,285,2.5,5.6,51,0.00,,,-99.99,Meteorologica,2013-08-30 16:21:00,
2013-08-30 11:26:00,90.9,71.1,29.91,SSE,166,1.1,6.0,51,0.00,,,-99.99,Meteorologica,2013-08-30 16:26:00,
2013-08-30 11:31:00,91.6,70.6,29.91,SW,231,0.0,4.2,50,0.00,,,-99.99,Meteorologica,2013-08-30 16:31:00,
2013-08-30 11:36:00,92.0,69.9,29.91,SSW,199,2.2,7.0,48,0.00,,,-99.99,Meteorologica,2013-08-30 16:36:00,
2013-08-30 11:41:00,92.3,70.7,29.90,SW,227,0.0,3.0,48,0.00,,,-99.99,Meteorologica,2013-08-30 16:41:00,
2013-08-30 11:46:00,92.5,70.8,29.90,SE,141,1.3,9.8,49,0.00,,,-99.99,Meteorologica,2013-08-30 16:46:00,
2013-08-30 11:51:00,92.7,71.2,29.90,West,273,1.5,7.4,49,0.00,,,-99.99,Meteorologica,2013-08-30 16:51:00,
2013-08-30 11:56:00,92.4,70.8,29.90,SSE,156,4.3,9.4,49,0.00,,,-99.99,Meteorologica,2013-08-30 16:56:00,
2013-08-30 12:01:00,92.7,70.7,29.90,South,190,6.6,9.7,48,0.00,,,-99.99,Meteorologica,2013-08-30 17:01:00,
2013-08-30 12:06:00,93.0,71.0,29.90,South,179,4.8,8.8,48,0.00,,,-99.99,Meteorologica,2013-08-30 17:06:00,
2013-08-30 12:11:00,93.2,70.9,29.90,South,189,4.2,8.5,48,0.00,,,-99.99,Meteorologica,2013-08-30 17:11:00,
2013-08-30 12:16:00,93.7,71.3,29.90,SW,224,4.9,7.1,48,0.00,,,-99.99,Meteorologica,2013-08-30 17:16:00,
2013-08-30 12:21:00,93.8,70.5,29.90,SSW,202,5.0,7.8,46,0.00,,,-99.99,Meteorologica,2013-08-30 17:21:00,
2013-08-30 12:26:00,93.9,70.3,29.90,SSW,193,2.7,6.8,46,0.00,,,-99.99,Meteorologica,2013-08-30 17:26:00,
2013-08-30 12:31:00,94.2,69.4,29.90,South,189,7.3,11.5,44,0.00,,,-99.99,Meteorologica,2013-08-30 17:31:00,
2013-08-30 12:36:00,94.3,69.6,29.90,South,185,3.8,7.9,44,0.00,,,-99.99,Meteorologica,2013-08-30 17:36:00,
2013-08-30 12:41:00,94.8,70.5,29.89,SW,214,4.9,6.9,45,0.00,,,-99.99,Meteorologica,2013-08-30 17:41:00,
2013-08-30 12:46:00,94.9,70.4,29.89,SE,146,2.9,5.3,45,0.00,,,-99.99,Meteorologica,2013-08-30 17:46:00,
2013-08-30 12:51:00,95.7,71.9,29.89,SSE,155,0.0,0.0,46,0.00,,,-99.99,Meteorologica,2013-08-30 17:51:00,
2013-08-30 12:57:00,95.9,71.4,29.89,SSE,152,3.6,9.5,45,0.00,,,-99.99,Meteorologica,2013-08-30 17:57:00,
2013-08-30 13:02:00,95.9,71.0,29.89,SSE,148,4.6,9.7,44,0.00,,,-99.99,Meteorologica,2013-08-30 18:02:00,
2013-08-30 13:07:00,95.9,70.5,29.88,SSE,151,6.5,9.7,43,0.00,,,-99.99,Meteorologica,2013-08-30 18:07:00,
2013-08-30 13:12:00,96.0,71.4,29.88,South,183,0.0,4.3,45,0.00,,,-99.99,Meteorologica,2013-08-30 18:12:00,
2013-08-30 13:17:00,96.2,70.7,29.88,SW,231,4.4,10.2,43,0.00,,,-99.99,Meteorologica,2013-08-30 18:17:00,
2013-08-30 13:22:00,96.4,70.8,29.88,South,176,3.8,8.3,43,0.00,,,-99.99,Meteorologica,2013-08-30 18:22:00,
2013-08-30 13:27:00,96.8,70.0,29.88,SSE,164,4.9,9.1,42,0.00,,,-99.99,Meteorologica,2013-08-30 18:27:00,
2013-08-30 13:32:00,97.0,69.0,29.88,South,191,5.7,8.9,40,0.00,,,-99.99,Meteorologica,2013-08-30 18:32:00,
2013-08-30 13:37:00,97.2,68.5,29.88,SSE,153,2.0,10.2,39,0.00,,,-99.99,Meteorologica,2013-08-30 18:37:00,
2013-08-30 13:42:00,97.7,68.6,29.88,SSE,163,5.1,9.2,39,0.00,,,-99.99,Meteorologica,2013-08-30 18:42:00,
2013-08-30 13:47:00,98.1,69.5,29.87,SSW,199,2.8,7.3,39,0.00,,,-99.99,Meteorologica,2013-08-30 18:47:00,
2013-08-30 13:52:00,98.5,69.1,29.87,SSE,163,6.0,9.1,38,0.00,,,-99.99,Meteorologica,2013-08-30 18:52:00,
2013-08-30 13:57:00,99.1,69.3,29.87,South,191,0.4,9.4,38,0.00,,,-99.99,Meteorologica,2013-08-30 18:57:00,
2013-08-30 14:02:00,99.1,67.7,29.87,SSW,196,5.9,9.4,36,0.00,,,-99.99,Meteorologica,2013-08-30 19:02:00,
2013-08-30 14:07:00,99.2,68.0,29.87,SW,223,2.5,9.4,36,0.00,,,-99.99,Meteorologica,2013-08-30 19:07:00,
2013-08-30 14:12:00,99.8,68.9,29.87,West,277,3.9,7.0,37,0.00,,,-99.99,Meteorologica,2013-08-30 19:12:00,
2013-08-30 14:17:00,100.2,66.5,29.87,WNW,292,5.6,8.6,33,0.00,,,-99.99,Meteorologica,2013-08-30 19:17:00,
2013-08-30 14:22:00,100.4,64.9,29.87,South,189,0.0,8.0,31,0.00,,,-99.99,Meteorologica,2013-08-30 19:22:00,
2013-08-30 14:27:00,100.4,64.2,29.87,West,276,6.9,11.4,30,0.00,,,-99.99,Meteorologica,2013-08-30 19:27:00,
2013-08-30 14:32:00,100.4,62.9,29.86,WNW,291,3.3,8.4,29,0.00,,,-99.99,Meteorologica,2013-08-30 19:32:00,
2013-08-30 14:37:00,100.8,63.7,29.86,SSE,166,1.1,5.3,30,0.00,,,-99.99,Meteorologica,2013-08-30 19:37:00,
2013-08-30 14:42:00,100.9,61.5,29.86,SSW,208,6.3,9.9,27,0.00,,,-99.99,Meteorologica,2013-08-30 19:42:00,
2013-08-30 14:47:00,101.1,63.3,29.86,South,188,1.8,6.9,29,0.00,,,-99.99,Meteorologica,2013-08-30 19:47:00,
2013-08-30 14:52:00,101.2,61.9,29.85,SW,235,3.5,9.4,27,0.00,,,-99.99,Meteorologica,2013-08-30 19:52:00,
2013-08-30 14:57:00,101.0,61.8,29.85,WSW,245,2.7,9.5,27,0.00,,,-99.99,Meteorologica,2013-08-30 19:57:00,
2013-08-30 15:02:00,101.0,62.0,29.85,South,184,4.7,8.4,28,0.00,,,-99.99,Meteorologica,2013-08-30 20:02:00,
2013-08-30 15:07:00,101.2,60.9,29.85,South,173,5.5,12.2,26,0.00,,,-99.99,Meteorologica,2013-08-30 20:07:00,
2013-08-30 15:12:00,101.3,62.6,29.85,SSE,151,2.4,7.2,28,0.00,,,-99.99,Meteorologica,2013-08-30 20:12:00,
2013-08-30 15:17:00,101.3,60.4,29.85,South,187,4.8,10.6,26,0.00,,,-99.99,Meteorologica,2013-08-30 20:17:00,
2013-08-30 15:22:00,101.3,60.8,29.85,SSW,194,5.2,11.8,26,0.00,,,-99.99,Meteorologica,2013-08-30 20:22:00,
2013-08-30 15:27:00,101.3,62.0,29.85,SW,231,4.0,11.2,27,0.00,,,-99.99,Meteorologica,2013-08-30 20:27:00,
2013-08-30 15:32:00,101.3,61.5,29.85,WSW,239,2.6,9.1,27,0.00,,,-99.99,Meteorologica,2013-08-30 20:32:00,
2013-08-30 15:37:00,101.4,61.1,29.84,SSW,193,6.2,12.5,26,0.00,,,-99.99,Meteorologica,2013-08-30 20:37:00,
2013-08-30 15:42:00,101.5,60.4,29.84,SSW,192,3.2,11.0,26,0.00,,,-99.99,Meteorologica,2013-08-30 20:42:00,
2013-08-30 15:47:00,101.4,62.1,29.84,SW,228,0.8,6.9,27,0.00,,,-99.99,Meteorologica,2013-08-30 20:47:00,
2013-08-30 15:52:00,101.3,59.8,29.84,SSW,206,5.5,9.8,25,0.00,,,-99.99,Meteorologica,2013-08-30 20:52:00,
2013-08-30 15:57:00,101.2,62.0,29.83,West,279,0.4,2.9,27,0.00,,,-99.99,Meteorologica,2013-08-30 20:57:00,
2013-08-30 16:02:00,101.3,60.9,29.83,WSW,244,0.0,4.7,26,0.00,,,-99.99,Meteorologica,2013-08-30 21:02:00,
2013-08-30 16:07:00,101.6,60.8,29.83,SSW,199,5.2,9.5,26,0.00,,,-99.99,Meteorologica,2013-08-30 21:07:00,
2013-08-30 16:12:00,101.7,62.3,29.83,NW,311,3.7,7.8,27,0.00,,,-99.99,Meteorologica,2013-08-30 21:12:00,
2013-08-30 16:17:00,101.9,62.1,29.83,SSW,196,0.0,9.5,27,0.00,,,-99.99,Meteorologica,2013-08-30 21:17:00,
2013-08-30 16:22:00,102.0,63.3,29.83,NW,304,2.1,5.5,28,0.00,,,-99.99,Meteorologica,2013-08-30 21:22:00,
2013-08-30 16:27:00,101.4,63.2,29.83,SSW,193,1.3,8.6,28,0.00,,,-99.99,Meteorologica,2013-08-30 21:27:00,
2013-08-30 16:32:00,101.4,63.1,29.83,SW,228,1.2,6.8,29,0.00,,,-99.99,Meteorologica,2013-08-30 21:32:00,
2013-08-30 16:37:00,101.3,61.9,29.83,SSW,196,4.7,8.8,27,0.00,,,-99.99,Meteorologica,2013-08-30 21:37:00,
2013-08-30 16:42:00,101.4,63.6,29.83,South,170,2.1,5.2,29,0.00,,,-99.99,Meteorologica,2013-08-30 21:42:00,
2013-08-30 16:47:00,101.5,62.7,29.82,SSW,201,3.5,6.9,28,0.00,,,-99.99,Meteorologica,2013-08-30 21:47:00,
2013-08-30 16:52:00,101.4,61.4,29.83,South,190,0.8,6.3,27,0.00,,,-99.99,Meteorologica,2013-08-30 21:52:00,
2013-08-30 16:57:00,101.4,61.1,29.82,WNW,298,3.3,6.4,26,0.00,,,-99.99,Meteorologica,2013-08-30 21:57:00,
2013-08-30 17:02:00,101.4,65.2,29.82,NW,310,2.7,6.5,31,0.00,,,-99.99,Meteorologica,2013-08-30 22:02:00,
2013-08-30 17:07:00,101.4,62.2,29.82,WNW,293,3.0,7.1,27,0.00,,,-99.99,Meteorologica,2013-08-30 22:07:00,
2013-08-30 17:12:00,101.2,60.9,29.82,WNW,296,5.1,7.9,26,0.00,,,-99.99,Meteorologica,2013-08-30 22:12:00,
2013-08-30 17:17:00,101.5,62.7,29.82,SSW,197,5.0,7.6,28,0.00,,,-99.99,Meteorologica,2013-08-30 22:17:00,
2013-08-30 17:22:00,101.3,62.0,29.82,WNW,293,5.0,7.2,27,0.00,,,-99.99,Meteorologica,2013-08-30 22:22:00,
2013-08-30 17:27:00,101.3,62.5,29.82,NW,317,3.2,5.2,28,0.00,,,-99.99,Meteorologica,2013-08-30 22:27:00,
2013-08-30 17:32:00,101.2,63.4,29.82,WSW,258,4.9,8.9,29,0.00,,,-99.99,Meteorologica,2013-08-30 22:32:00,
2013-08-30 17:37:00,101.1,63.7,29.82,West,271,0.0,4.3,29,0.00,,,-99.99,Meteorologica,2013-08-30 22:37:00,
2013-08-30 17:42:00,101.1,64.0,29.82,WSW,239,0.5,6.3,30,0.00,,,-99.99,Meteorologica,2013-08-30 22:42:00,
2013-08-30 17:47:00,101.0,65.5,29.82,NW,304,2.0,6.7,31,0.00,,,-99.99,Meteorologica,2013-08-30 22:47:00,
2013-08-30 17:52:00,100.5,64.9,29.82,SSW,206,0.6,3.0,31,0.00,,,-99.99,Meteorologica,2013-08-30 22:52:00,
2013-08-30 17:57:00,100.3,64.8,29.82,SSW,206,0.0,0.0,31,0.00,,,-99.99,Meteorologica,2013-08-30 22:57:00,
2013-08-30 18:02:00,100.3,63.8,29.82,SSW,206,0.0,0.0,30,0.00,,,-99.99,Meteorologica,2013-08-30 23:02:00,
2013-08-30 18:07:00,100.2,64.5,29.81,WNW,295,0.0,5.0,31,0.00,,,-99.99,Meteorologica,2013-08-30 23:07:00,
2013-08-30 18:12:00,100.2,64.4,29.82,SW,224,0.0,5.6,31,0.00,,,-99.99,Meteorologica,2013-08-30 23:12:00,
2013-08-30 18:17:00,100.3,65.9,29.82,WSW,252,0.0,5.6,33,0.00,,,-99.99,Meteorologica,2013-08-30 23:17:00,
2013-08-30 18:22:00,100.3,65.3,29.81,WNW,282,0.3,2.7,32,0.00,,,-99.99,Meteorologica,2013-08-30 23:22:00,
2013-08-30 18:27:00,100.3,66.2,29.81,WNW,285,0.0,0.0,33,0.00,,,-99.99,Meteorologica,2013-08-30 23:27:00,
2013-08-30 18:32:00,100.2,65.8,29.81,West,276,0.0,0.0,32,0.00,,,-99.99,Meteorologica,2013-08-30 23:32:00,
2013-08-30 18:37:00,100.0,66.1,29.81,West,276,0.0,0.0,33,0.00,,,-99.99,Meteorologica,2013-08-30 23:37:00,
2013-08-30 18:42:00,100.0,66.8,29.82,West,276,0.0,0.0,34,0.00,,,-99.99,Meteorologica,2013-08-30 23:42:00,
2013-08-30 18:47:00,99.8,66.7,29.81,West,265,0.5,6.6,34,0.00,,,-99.99,Meteorologica,2013-08-30 23:47:00,
2013-08-30 18:52:00,99.4,65.9,29.81,West,266,0.0,0.0,33,0.00,,,-99.99,Meteorologica,2013-08-30 23:52:00,
2013-08-30 18:57:00,99.4,66.6,29.82,West,266,0.0,0.0,34,0.00,,,-99.99,Meteorologica,2013-08-30 23:57:00,
2013-08-30 19:02:00,99.4,66.8,29.81,West,266,0.0,0.0,35,0.00,,,-99.99,Meteorologica,2013-08-31 00:02:00,
2013-08-30 19:07:00,99.3,67.6,29.81,West,266,0.0,0.0,36,0.00,,,-99.99,Meteorologica,2013-08-31 00:07:00,
2013-08-30 19:12:00,99.1,67.8,29.81,West,266,0.0,0.0,36,0.00,,,-99.99,Meteorologica,2013-08-31 00:12:00,
2013-08-30 19:17:00,99.0,69.8,29.81,West,266,0.0,0.0,39,0.00,,,-99.99,Meteorologica,2013-08-31 00:17:00,
2013-08-30 19:22:00,98.4,70.4,29.81,West,266,0.0,0.0,40,0.00,,,-99.99,Meteorologica,2013-08-31 00:22:00,
2013-08-30 19:27:00,98.2,71.1,29.81,West,266,0.0,0.0,41,0.00,,,-99.99,Meteorologica,2013-08-31 00:27:00,
2013-08-30 19:32:00,97.9,71.3,29.81,West,266,0.0,0.0,42,0.00,,,-99.99,Meteorologica,2013-08-31 00:32:00,
2013-08-30 19:37:00,97.1,72.0,29.81,West,266,0.0,0.0,44,0.00,,,-99.99,Meteorologica,2013-08-31 00:37:00,
2013-08-30 19:42:00,96.2,71.9,29.81,West,266,0.0,0.0,45,0.00,,,-99.99,Meteorologica,2013-08-31 00:42:00,
2013-08-30 19:47:00,95.3,72.5,29.81,West,266,0.0,0.0,47,0.00,,,-99.99,Meteorologica,2013-08-31 00:47:00,
2013-08-30 19:52:00,94.4,72.9,29.80,West,266,0.0,0.0,49,0.00,,,-99.99,Meteorologica,2013-08-31 00:52:00,
2013-08-30 19:57:00,93.7,73.5,29.81,West,266,0.0,0.0,51,0.00,,,-99.99,Meteorologica,2013-08-31 00:57:00,
2013-08-30 20:02:00,92.3,73.7,29.81,West,266,0.0,0.0,54,0.00,,,-99.99,Meteorologica,2013-08-31 01:02:00,
2013-08-30 20:07:00,90.8,73.3,29.81,West,266,0.0,0.0,56,0.00,,,-99.99,Meteorologica,2013-08-31 01:07:00,
2013-08-30 20:12:00,89.7,72.8,29.81,West,266,0.0,0.0,57,0.00,,,-99.99,Meteorologica,2013-08-31 01:12:00,
2013-08-30 20:17:00,88.9,73.0,29.81,West,266,0.0,0.0,58,0.00,,,-99.99,Meteorologica,2013-08-31 01:17:00,
2013-08-30 20:22:00,88.5,73.0,29.81,West,266,0.0,0.0,59,0.00,,,-99.99,Meteorologica,2013-08-31 01:22:00,
2013-08-30 20:27:00,88.1,73.3,29.82,West,266,0.0,0.0,61,0.00,,,-99.99,Meteorologica,2013-08-31 01:27:00,
2013-08-30 20:32:00,87.8,73.7,29.81,West,266,0.0,0.0,62,0.00,,,-99.99,Meteorologica,2013-08-31 01:32:00,
2013-08-30 20:37:00,87.6,74.2,29.81,West,266,0.0,0.0,63,0.00,,,-99.99,Meteorologica,2013-08-31 01:37:00,
2013-08-30 20:42:00,87.2,74.1,29.81,West,266,0.0,0.0,64,0.00,,,-99.99,Meteorologica,2013-08-31 01:42:00,
2013-08-30 20:47:00,86.9,74.3,29.82,West,266,0.0,0.0,65,0.00,,,-99.99,Meteorologica,2013-08-31 01:47:00,
2013-08-30 20:52:00,86.5,74.2,29.82,West,266,0.0,0.0,66,0.00,,,-99.99,Meteorologica,2013-08-31 01:52:00,
2013-08-30 20:57:00,86.2,74.5,29.81,West,266,0.0,0.0,67,0.00,,,-99.99,Meteorologica,2013-08-31 01:57:00,
2013-08-30 21:02:00,86.0,74.3,29.82,West,266,0.0,0.0,67,0.00,,,-99.99,Meteorologica,2013-08-31 02:02:00,
2013-08-30 21:07:00,85.6,74.4,29.82,West,266,0.0,0.0,68,0.00,,,-99.99,Meteorologica,2013-08-31 02:07:00,
2013-08-30 21:12:00,85.4,74.5,29.82,West,266,0.0,0.0,69,0.00,,,-99.99,Meteorologica,2013-08-31 02:12:00,
2013-08-30 21:17:00,85.2,74.4,29.82,West,266,0.0,0.0,69,0.00,,,-99.99,Meteorologica,2013-08-31 02:17:00,
2013-08-30 21:22:00,84.9,74.4,29.82,West,266,0.0,0.0,70,0.00,,,-99.99,Meteorologica,2013-08-31 02:22:00,
2013-08-30 21:27:00,84.6,74.4,29.82,West,266,0.0,0.0,70,0.00,,,-99.99,Meteorologica,2013-08-31 02:27:00,
2013-08-30 21:32:00,84.4,74.2,29.82,West,266,0.0,0.0,71,0.00,,,-99.99,Meteorologica,2013-08-31 02:32:00,
2013-08-30 21:37:00,84.2,74.6,29.82,West,266,0.0,0.0,72,0.00,,,-99.99,Meteorologica,2013-08-31 02:37:00,
2013-08-30 21:42:00,83.7,74.4,29.82,West,266,0.0,0.0,73,0.00,,,-99.99,Meteorologica,2013-08-31 02:42:00,
2013-08-30 21:47:00,83.5,74.2,29.83,West,266,0.0,0.0,73,0.00,,,-99.99,Meteorologica,2013-08-31 02:47:00,
2013-08-30 21:52:00,83.2,74.4,29.82,West,266,0.0,0.0,74,0.00,,,-99.99,Meteorologica,2013-08-31 02:52:00,
2013-08-30 21:57:00,83.0,74.4,29.83,West,266,0.0,0.0,75,0.00,,,-99.99,Meteorologica,2013-08-31 02:57:00,
2013-08-30 22:02:00,82.5,74.3,29.83,West,266,0.0,0.0,76,0.00,,,-99.99,Meteorologica,2013-08-31 03:02:00,
2013-08-30 22:07:00,82.3,74.4,29.83,West,266,0.0,0.0,76,0.00,,,-99.99,Meteorologica,2013-08-31 03:07:00,
2013-08-30 22:12:00,82.0,74.3,29.83,West,266,0.0,0.0,77,0.00,,,-99.99,Meteorologica,2013-08-31 03:12:00,
2013-08-30 22:17:00,81.8,74.4,29.83,West,266,0.0,0.0,77,0.00,,,-99.99,Meteorologica,2013-08-31 03:17:00,
2013-08-30 22:22:00,81.4,74.2,29.83,West,266,0.0,0.0,78,0.00,,,-99.99,Meteorologica,2013-08-31 03:22:00,
2013-08-30 22:27:00,81.1,74.3,29.84,West,266,0.0,0.0,79,0.00,,,-99.99,Meteorologica,2013-08-31 03:27:00,
2013-08-30 22:32:00,81.0,74.4,29.84,West,266,0.0,0.0,80,0.00,,,-99.99,Meteorologica,2013-08-31 03:32:00,
2013-08-30 22:37:00,80.6,74.3,29.83,West,266,0.0,0.0,80,0.00,,,-99.99,Meteorologica,2013-08-31 03:37:00,
2013-08-30 22:42:00,80.5,74.3,29.83,West,266,0.0,0.0,81,0.00,,,-99.99,Meteorologica,2013-08-31 03:42:00,
2013-08-30 22:47:00,80.5,74.4,29.83,West,266,0.0,0.0,81,0.00,,,-99.99,Meteorologica,2013-08-31 03:47:00,
2013-08-30 22:52:00,80.3,74.4,29.84,West,266,0.0,0.0,82,0.00,,,-99.99,Meteorologica,2013-08-31 03:52:00,
2013-08-30 22:57:00,80.1,74.3,29.83,West,266,0.0,0.0,82,0.00,,,-99.99,Meteorologica,2013-08-31 03:57:00,
2013-08-30 23:02:00,80.0,74.2,29.83,West,266,0.0,0.0,82,0.00,,,-99.99,Meteorologica,2013-08-31 04:02:00,
2013-08-30 23:03:00,80.0,74.3,29.83,West,266,0.0,0.0,82,0.00,,,-99.99,Meteorologica,2013-08-31 04:03:00,
2013-08-30 23:05:00,79.8,74.1,29.84,West,266,0.0,0.0,82,0.00,,,-99.99,Meteorologica,2013-08-31 04:05:00,
2013-08-30 23:06:00,79.9,74.5,29.84,West,266,0.0,0.0,83,0.00,,,-99.99,Meteorologica,2013-08-31 04:06:00,
2013-08-30 23:10:00,79.7,74.3,29.85,West,266,0.0,0.0,83,0.00,,,-99.99,Meteorologica,2013-08-31 04:10:00,
2013-08-30 23:11:00,79.7,74.4,29.85,West,266,0.0,0.0,83,0.00,,,-99.99,Meteorologica,2013-08-31 04:11:00,
2013-08-30 23:16:00,79.4,74.5,29.85,West,266,0.0,0.0,84,0.00,,,-99.99,Meteorologica,2013-08-31 04:16:00,
2013-08-30 23:21:00,79.3,74.7,29.85,West,266,0.0,0.0,85,0.00,,,-99.99,Meteorologica,2013-08-31 04:21:00,
2013-08-30 23:26:00,79.1,74.3,29.85,West,266,0.0,0.0,85,0.00,,,-99.99,Meteorologica,2013-08-31 04:26:00,
2013-08-30 23:31:00,79.1,74.2,29.85,West,266,0.0,0.0,84,0.00,,,-99.99,Meteorologica,2013-08-31 04:31:00,
2013-08-30 23:36:00,79.1,74.2,29.85,West,266,0.0,0.0,84,0.00,,,-99.99,Meteorologica,2013-08-31 04:36:00,
2013-08-30 23:41:00,78.9,74.1,29.85,West,266,0.0,0.0,85,0.00,,,-99.99,Meteorologica,2013-08-31 04:41:00,
2013-08-30 23:46:00,78.8,74.1,29.85,West,266,0.0,0.0,85,0.00,,,-99.99,Meteorologica,2013-08-31 04:46:00,
2013-08-30 23:51:00,78.7,74.0,29.85,West,266,0.0,0.0,85,0.00,,,-99.99,Meteorologica,2013-08-31 04:51:00,
2013-08-30 23:56:00,78.7,74.2,29.85,West,266,0.0,0.0,85,0.00,,,-99.99,Meteorologica,2013-08-31 04:56:00,